Tiempo atmosférico en la estación meteorológica de Burgo de Osma, Soria (932 m.)



Fecha
DESCASC
Temp. máxima en grados centígrados (hora)
DESCASC
Temp. mínima en grados centígrados (hora)
DESCASC
Temp. media en grados centígrados
DESCASC
Racha de viento máxima en m/sg (hora)
DESCASC
Velocidad máxima media en intervalos de 10 minutos(hora)
DESCASC
Precipitaciones diarias en mm
DESCASC
Precipitaciones de 00:00 a 06:00 en mm
DESCASC
Precipitaciones de 06:00 a 12:00 en mm
DESCASC
Precipitaciones de 12:00 a 18:00 en mm
DESCASC
Precipitaciones de 18:00 a 24:00 en mm
DESCASC
23-06-2019 31.4 (17:00) 9.4 (06:10) 20.4 13.33 (14:30) 6.67 (17:40) 0 0 0 0 0
22-06-2019 28.8 (15:40) 7.3 (06:30) 18 8.89 (19:00) 5.28 (18:10) 0 0 0 0 0
21-06-2019 23.7 (17:20) 10.7 (06:30) 17.2 10.28 (18:30) 6.11 (18:30) 0 0 0 0 0
20-06-2019 24.7 (13:30) 10.7 (00:00) 17.7 18.33 (19:30) 11.39 (19:40) 13.6 0 0 4.6 9
19-06-2019 -- (--) -- (--) -- -- (--) -- (--) -- -- -- -- 0
18-06-2019 -- (--) -- (--) -- -- (--) -- (--) -- 0 0 0 --
17-06-2019 30 (16:50) 5.5 (00:00) 17.8 11.11 (19:20) 6.39 (23:30) 0 0 0 0 0
16-06-2019 28.2 (16:20) 5.3 (00:00) 16.8 9.72 (13:30) 6.39 (09:50) 0 0 0 0 0
15-06-2019 22.6 (18:20) 8.4 (00:00) 15.5 10 (00:50) 6.39 (00:40) 0 0 0 0 0
14-06-2019 25.3 (17:20) 5.8 (00:00) 15.5 13.61 (15:40) 8.61 (20:20) 0 0 0 0 0
13-06-2019 25.8 (17:00) 7.1 (00:00) 16.4 12.78 (13:20) 7.22 (13:00) 0 0 0 0 0
12-06-2019 21.5 (19:10) -0.1 (00:00) 10.7 9.72 (15:30) 4.72 (15:30) 0 0 0 0 0
11-06-2019 15.7 (18:00) 6.4 (00:00) 11 11.11 (15:30) 7.22 (14:50) 2 0 2 0 0
10-06-2019 18.4 (16:50) 7.1 (00:00) 12.7 13.61 (13:40) 7.78 (13:50) 0 0 0 0 0
09-06-2019 23.8 (17:10) 8.3 (00:00) 16 11.39 (14:40) 6.67 (15:30) 0 0 0 0 0
08-06-2019 24.7 (17:20) 0.5 (00:00) 12.6 11.11 (14:00) 6.67 (17:40) 0 0 0 0 0
07-06-2019 17.4 (19:00) 6 (00:00) 11.7 16.67 (01:20) 12.22 (01:30) 1.4 1.4 0 0 0
06-06-2019 22.6 (17:00) 4.2 (00:00) 13.4 15.83 (19:00) 10.28 (18:50) 0 0 0 0 0
05-06-2019 17.4 (17:50) 7.6 (00:00) 12.5 15.56 (12:30) 11.11 (12:30) 3.4 0 3.4 0 0
04-06-2019 25.6 (15:40) 7.1 (00:00) 16.4 11.94 (18:30) 8.06 (18:30) 0 0 0 0 0
03-06-2019 30.5 (18:30) 9.8 (00:00) 20.2 13.33 (14:30) 9.72 (14:30) 0 0 0 0 0
02-06-2019 31.1 (16:50) 12.3 (00:00) 21.7 9.72 (17:00) 5.83 (17:00) 0 0 0 0 0
01-06-2019 32.5 (20:20) 8.7 (00:00) 20.6 8.89 (14:40) 4.17 (14:40) 0 0 0 0 0
31-05-2019 32.2 (19:40) 4.8 (00:00) 18.5 8.06 (22:10) 5 (22:20) 0 0 0 0 0
30-05-2019 29 (17:10) 2.4 (00:00) 15.7 9.72 (20:10) 6.94 (20:10) 0 0 0 0 0
29-05-2019 23.2 (18:00) 0.9 (00:00) 12.1 8.33 (16:30) 5.28 (19:30) 0 0 0 0 0
28-05-2019 19.5 (16:10) 2.6 (00:00) 11 12.5 (18:40) 8.89 (18:20) 0 0 0 0 0
27-05-2019 23.2 (15:30) 4.3 (00:00) 13.8 11.67 (17:20) 7.5 (17:20) 0 0 0 0 0
26-05-2019 23.6 (18:10) 1.2 (00:00) 12.4 11.11 (16:50) 6.39 (19:40) 0 0 0 0 0

Gráficas

Temp. máximas Temp. mínimas Temp. medias Precipitaciones Rachas de viento máximas Velocidades máximas media en intervalos de 10 minutos

Datos horarios

Fecha y hora oficial Temperatura (ºC) Velocidad del viento (km/h) Dirección del viento Racha (km/h) Dirección de racha Precipitación (mm) Presión (hPa) Tendencia (hPa) Humedad (%)
2019-06-24 23:00:00 18.4 30 Noroeste 52 Oeste 0 -- -- 63
2019-06-24 22:00:00 20.4 36 Noroeste 53 Noroeste 0 -- -- 54
2019-06-24 21:00:00 27.2 14 Sudoeste 22 Sudoeste 0 -- -- 31
2019-06-24 20:00:00 27 17 Sudoeste 24 Sur 0 -- -- 32
2019-06-24 19:00:00 27.7 14 Sur 27 Sur 0 -- -- 31
2019-06-24 18:00:00 28.3 6 Sur 23 Sur 0 -- -- 30
2019-06-24 17:00:00 27.7 15 Sur 32 Sur 0 -- -- 32
2019-06-24 16:00:00 27.6 16 Sur 29 Sudeste 0 -- -- 31
2019-06-24 15:00:00 27.8 13 Sur 32 Nordeste 0 -- -- 30
2019-06-24 14:00:00 26.4 14 Sudeste 23 Sudeste 0 -- -- 33
2019-06-24 13:00:00 24.7 14 Este 26 Este 0 -- -- 34
2019-06-24 12:00:00 24.2 13 Este 21 Este 0 -- -- 34
2019-06-24 11:00:00 23.4 13 Este 22 Este 0 -- -- 35
2019-06-24 10:00:00 22.1 12 Sudeste 22 Este 0 -- -- 37
2019-06-24 09:00:00 20.9 10 Este 14 Este 0 -- -- 39
2019-06-24 08:00:00 19 3 Nordeste 12 Noroeste 0 -- -- 44
2019-06-24 07:00:00 17.7 6 Oeste 19 Nordeste 0 -- -- 50
2019-06-24 06:00:00 14.9 4 Este 12 Sudeste 0 -- -- 70
2019-06-24 05:00:00 15.4 5 Sudoeste 8 Sudeste 0 -- -- 67
2019-06-24 04:00:00 15.9 2 Nordeste 5 Este 0 -- -- 66
2019-06-24 03:00:00 16.6 2 Nordeste 9 Sudoeste 0 -- -- 66
2019-06-24 02:00:00 17.1 3 Nordeste 7 Este 0 -- -- 63
2019-06-24 01:00:00 18.3 0 Calma 5 Nordeste 0 -- -- 53
2019-06-24 00:00:00 18.6 5 Este 6 Este 0 -- -- 54
2019-06-23 23:00:00 20.2 4 Nordeste 6 Nordeste 0 -- -- 48
2019-06-23 22:00:00 23 3 Nordeste 9 Oeste 0 -- -- 35
2019-06-23 21:00:00 26 7 Oeste 19 Sudoeste 0 -- -- 29
2019-06-23 20:00:00 28.1 14 Sudoeste 32 Sur 0 -- -- 23
2019-06-23 19:00:00 29.2 17 Sur 33 Sudoeste 0 -- -- 21
2019-06-23 18:00:00 29.9 18 Sur 35 Sur 0 -- -- 22
2019-06-23 17:00:00 31.4 19 Sur 40 Sudoeste 0 -- -- 22
2019-06-23 16:00:00 30.4 17 Sur 32 Sur 0 -- -- 26
2019-06-23 15:00:00 29.5 19 Sudoeste 48 Sudoeste 0 -- -- 27
2019-06-23 14:00:00 28.9 11 Sur 27 Oeste 0 -- -- 28
2019-06-23 13:00:00 28 6 Norte 13 Sur 0 -- -- 31
2019-06-23 12:00:00 26.5 5 Sudeste 13 Sur 0 -- -- 31
2019-06-23 11:00:00 23.9 3 Oeste 13 Este 0 -- -- 42
2019-06-23 10:00:00 21.7 6 Este 11 Este 0 -- -- 54
2019-06-23 09:00:00 16.9 3 Este 6 Este 0 -- -- 63
2019-06-23 08:00:00 12.2 4 Este 8 Nordeste 0 -- -- 75
2019-06-23 07:00:00 9.9 6 Nordeste 8 Nordeste 0 -- -- 80
2019-06-23 06:00:00 9.5 3 Este 9 Este 0 -- -- 82
2019-06-23 05:00:00 9.7 3 Este 8 Sudeste 0 -- -- 84
2019-06-23 04:00:00 11.1 5 Nordeste 9 Nordeste 0 -- -- 77
2019-06-23 03:00:00 11.5 4 Nordeste 5 Nordeste 0 -- -- 77
2019-06-23 02:00:00 12.6 3 Este 8 Sudeste 0 -- -- 75
2019-06-23 01:00:00 14.1 3 Este 6 Este 0 -- -- 70
2019-06-23 00:00:00 16.4 3 Este 9 Sudeste 0 -- -- 60
2019-06-22 23:00:00 21.1 0 Calma 6 Sudoeste 0 -- -- 35
2019-06-22 22:00:00 23.2 5 Sur 13 Sudoeste 0 -- -- 31
2019-06-22 21:00:00 26.8 11 Sur 22 Sur 0 -- -- 26
2019-06-22 20:00:00 26.8 16 Sur 26 Sur 0 -- -- 24
2019-06-22 19:00:00 28.1 18 Sur 32 Sur 0 -- -- 26
2019-06-22 18:00:00 28.3 9 Sudeste 20 Sudeste 0 -- -- 29
2019-06-22 17:00:00 28.4 6 Noroeste 22 Oeste 0 -- -- 29
2019-06-22 16:00:00 28 4 Este 26 Oeste 0 -- -- 28
2019-06-22 15:00:00 27.2 9 Oeste 26 Oeste 0 -- -- 28
2019-06-22 14:00:00 26 10 Noroeste 21 Sudoeste 0 -- -- 34
2019-06-22 13:00:00 24.9 6 Sudoeste 22 Oeste 0 -- -- 36
2019-06-22 12:00:00 23.3 5 Noroeste 14 Este 0 -- -- 46
2019-06-22 11:00:00 20.2 11 Este 19 Este 0 -- -- 56
2019-06-22 10:00:00 16.4 12 Este 17 Este 0 -- -- 66
2019-06-22 09:00:00 13.7 10 Este 15 Este 0 -- -- 75
2019-06-22 08:00:00 10.2 5 Este 10 Este 0 -- -- 92
2019-06-22 07:00:00 7.4 4 Este 9 Nordeste 0 -- -- 95
2019-06-22 06:00:00 7.8 3 Este 4 Este 0 -- -- 95
2019-06-22 05:00:00 8.2 5 Este 8 Nordeste 0 -- -- 94
2019-06-22 04:00:00 8.6 4 Este 6 Este 0 -- -- 92
2019-06-22 03:00:00 10.1 3 Este 7 Nordeste 0 -- -- 89
2019-06-22 02:00:00 11.4 5 Nordeste 8 Este 0 -- -- 82
2019-06-22 01:00:00 13.2 5 Este 13 Este 0 -- -- 73
2019-06-22 00:00:00 14.4 9 Sudeste 16 Sudeste 0 -- -- 69
2019-06-21 23:00:00 15.9 12 Este 22 Este 0 -- -- 64
2019-06-21 22:00:00 17.6 8 Nordeste 29 Noroeste 0 -- -- 55
2019-06-21 21:00:00 20.2 21 Noroeste 30 Noroeste 0 -- -- 46
2019-06-21 20:00:00 22.1 17 Noroeste 30 Noroeste 0 -- -- 39
2019-06-21 19:00:00 22.1 21 Oeste 37 Oeste 0 -- -- 38
2019-06-21 18:00:00 23.4 12 Oeste 34 Oeste 0 -- -- 38
2019-06-21 17:00:00 22.1 15 Oeste 26 Oeste 0 -- -- 40
2019-06-21 16:00:00 22.6 14 Sudoeste 24 Oeste 0 -- -- 39
2019-06-21 15:00:00 21 14 Oeste 25 Oeste 0 -- -- 47
2019-06-21 14:00:00 19 17 Oeste 27 Oeste 0 -- -- 63
2019-06-21 13:00:00 16.9 19 Oeste 29 Oeste 0 -- -- 74
2019-06-21 12:00:00 16.1 18 Noroeste 27 Oeste 0 -- -- 77
2019-06-21 11:00:00 14.8 15 Noroeste 22 Oeste 0 -- -- 80
2019-06-21 10:00:00 14.6 13 Noroeste 19 Oeste 0 -- -- 83
2019-06-21 09:00:00 14.5 4 Norte 8 Noroeste 0 -- -- 85
2019-06-21 08:00:00 12.5 0 Calma 4 Sudeste 0 -- -- 94
2019-06-21 07:00:00 10.8 0 Calma 4 Sudeste 0 -- -- 94
2019-06-21 06:00:00 11.2 2 Sudeste 7 Este 0 -- -- 94
2019-06-21 05:00:00 12.2 3 Nordeste 14 Noroeste 0 -- -- 93
2019-06-21 04:00:00 12.8 10 Noroeste 15 Noroeste 0 -- -- 92
2019-06-21 03:00:00 13.8 5 Oeste 11 Oeste 0 -- -- 94
2019-06-21 02:00:00 13.4 0 Calma 14 Noroeste 0 -- -- 93
2019-06-21 01:00:00 14.4 7 Noroeste 16 Noroeste 0 -- -- 92
2019-06-21 00:00:00 14.5 3 Este 5 Este 0 -- -- 91
2019-06-20 23:00:00 14.6 0 Calma 8 Sudoeste 0 -- -- 90
2019-06-20 22:00:00 14.6 4 Este 9 Noroeste 0 -- -- 88
2019-06-20 21:00:00 14.7 5 Nordeste 27 Norte 0 -- -- 90
2019-06-20 20:00:00 14.2 17 Noroeste 66 Oeste 9 -- -- 86
2019-06-20 19:00:00 20.3 3 Este 11 Norte 0 -- -- 62
2019-06-20 18:00:00 22 7 Nordeste 21 Norte 0 -- -- 54
2019-06-20 17:00:00 17.2 17 Norte 58 Oeste 4.6 -- -- 74
2019-06-20 16:00:00 21.6 5 Noroeste 18 Noroeste 0 -- -- 44
2019-06-20 15:00:00 22.1 10 Noroeste 21 Noroeste 0 -- -- 42
2019-06-20 14:00:00 22.9 7 Oeste 14 Oeste 0 -- -- 40
2019-06-20 13:00:00 23.7 5 Norte 15 Nordeste 0 -- -- 39
2019-06-20 12:00:00 22.4 9 Noroeste 17 Norte 0 -- -- 43
2019-06-20 11:00:00 20.8 2 Noroeste 9 Oeste 0 -- -- 47
2019-06-20 10:00:00 18.6 0 Calma 5 Este 0 -- -- 57
2019-06-20 09:00:00 14.9 3 Sudeste 4 Sudeste 0 -- -- 68
2019-06-20 08:00:00 12.3 2 Sudeste 4 Sudeste 0 -- -- 76
2019-06-20 07:00:00 10.7 3 Este 5 Este 0 -- -- 80
2019-06-20 06:00:00 11.1 2 Este 5 Sudeste 0 -- -- 79
2019-06-20 05:00:00 12.2 0 Calma 5 Este 0 -- -- 75
2019-06-20 04:00:00 13.8 3 Oeste 10 Oeste 0 -- -- 66
2019-06-20 03:00:00 15.8 6 Oeste 10 Noroeste 0 -- -- 60
2019-06-20 02:00:00 17.6 9 Noroeste 13 Noroeste 0 -- -- 54
2019-06-20 01:00:00 17 10 Noroeste 14 Noroeste 0 -- -- 55
2019-06-20 00:00:00 18 10 Noroeste 19 Noroeste 0 -- -- 51
2019-06-19 23:00:00 19.6 12 Noroeste 24 Noroeste 0 -- -- 47
2019-06-19 22:00:00 20.5 17 Noroeste 28 Noroeste 0 -- -- 44
2019-06-19 21:00:00 22.5 20 Noroeste 31 Noroeste 0 -- -- 38
2019-06-19 20:00:00 23.5 19 Noroeste 28 Noroeste 0 -- -- 36
2019-06-19 19:00:00 23.8 17 Noroeste 31 Noroeste 0 -- -- 35
2019-06-19 18:00:00 24.4 9 Oeste 29 Oeste 0 -- -- 34
2019-06-19 17:00:00 25.4 16 Oeste 36 Oeste 0 -- -- 34
2019-06-19 16:00:00 24.9 13 Oeste 32 Oeste 0 -- -- 36
2019-06-19 15:00:00 23.9 10 Noroeste -- -- -- -- -- 38
2019-06-19 14:00:00 -- -- -- -- -- -- -- -- --
2019-06-19 13:00:00 -- -- -- -- -- -- -- -- --
2019-06-19 12:00:00 -- -- -- -- -- -- -- -- --
2019-06-19 11:00:00 -- -- -- -- -- -- -- -- --
2019-06-19 10:00:00 -- -- -- -- -- -- -- -- --
2019-06-19 09:00:00 -- -- -- -- -- -- -- -- --
2019-06-19 08:00:00 -- -- -- -- -- -- -- -- --
2019-06-19 07:00:00 -- -- -- -- -- -- -- -- --
2019-06-19 06:00:00 -- -- -- -- -- -- -- -- --
2019-06-19 05:00:00 -- -- -- -- -- -- -- -- --
2019-06-19 04:00:00 -- -- -- -- -- -- -- -- --
2019-06-19 03:00:00 -- -- -- -- -- -- -- -- --
2019-06-19 02:00:00 -- -- -- -- -- -- -- -- --
2019-06-19 01:00:00 -- -- -- -- -- -- -- -- --
2019-06-19 00:00:00 -- -- -- -- -- -- -- -- --
2019-06-18 23:00:00 -- -- -- -- -- -- -- -- --
2019-06-18 22:00:00 -- -- -- -- -- -- -- -- --
2019-06-18 21:00:00 -- -- -- -- -- -- -- -- --
2019-06-18 20:00:00 -- -- -- -- -- -- -- -- --
2019-06-18 19:00:00 28.1 22 Sudoeste 42 Sudoeste 0 -- -- 14
2019-06-18 18:00:00 28.6 23 Sudoeste 44 Sudoeste 0 -- -- 14
2019-06-18 17:00:00 28.5 28 Sudoeste 50 Sudoeste 0 -- -- 14
2019-06-18 16:00:00 28.6 27 Sudoeste 43 Sur 0 -- -- 13
2019-06-18 15:00:00 28.2 27 Sur 44 Sudoeste 0 -- -- 15
2019-06-18 14:00:00 27.8 27 Sur 45 Sur 0 -- -- 18
2019-06-18 13:00:00 27.3 22 Sur 40 Sur 0 -- -- 23
2019-06-18 12:00:00 26.2 17 Sudoeste 30 Oeste 0 -- -- 20
2019-06-18 11:00:00 25.2 8 Sudoeste 18 Oeste 0 -- -- 23
2019-06-18 10:00:00 23.7 5 Sudeste 9 Sur 0 -- -- 30
2019-06-18 09:00:00 17.5 3 Este 6 Este 0 -- -- 41
2019-06-18 08:00:00 12.5 5 Este 9 Este 0 -- -- 56
2019-06-18 07:00:00 12.8 2 Noroeste 6 Noroeste 0 -- -- 48
2019-06-18 06:00:00 13.5 3 Este 6 Nordeste 0 -- -- 47
2019-06-18 05:00:00 15 4 Este 9 Nordeste 0 -- -- 44
2019-06-18 04:00:00 17.5 6 Este 28 Noroeste 0 -- -- 36
2019-06-18 03:00:00 18.3 12 Sudoeste 18 Sudoeste 0 -- -- 34
2019-06-18 02:00:00 18.5 6 Oeste 19 Oeste 0 -- -- 33
2019-06-18 01:00:00 20.7 16 Oeste 32 Noroeste 0 -- -- 28
2019-06-18 00:00:00 21.9 22 Noroeste 32 Oeste 0 -- -- 26
2019-06-17 23:00:00 21.9 6 Oeste 9 Oeste 0 -- -- 25
2019-06-17 22:00:00 23.2 6 Sudoeste 15 Sudoeste 0 -- -- 22
2019-06-17 21:00:00 25.6 15 Sudoeste 27 Sudoeste 0 -- -- 19
2019-06-17 20:00:00 27.1 18 Oeste 40 Sudoeste 0 -- -- 17
2019-06-17 19:00:00 28.4 14 Sudoeste 30 Sur 0 -- -- 17
2019-06-17 18:00:00 29.9 16 Sudoeste 32 Sudoeste 0 -- -- 17
2019-06-17 17:00:00 29.5 14 Sudoeste 30 Sudoeste 0 -- -- 18
2019-06-17 16:00:00 28.9 17 Sudeste 29 Sudoeste 0 -- -- 17
2019-06-17 15:00:00 28.5 16 Sudoeste 33 Sudoeste 0 -- -- 17
2019-06-17 14:00:00 28.3 10 Sudeste 22 Sudeste 0 -- -- 20
2019-06-17 13:00:00 26.7 11 Sudeste 20 Este 0 -- -- 21
2019-06-17 12:00:00 26.1 5 Sudeste 13 Sudeste 0 -- -- 22
2019-06-17 11:00:00 23.1 5 Sudoeste 10 Sudoeste 0 -- -- 26
2019-06-17 10:00:00 19.3 3 Este 7 Nordeste 0 -- -- 39
2019-06-17 09:00:00 13.8 5 Este 7 Nordeste 0 -- -- 50
2019-06-17 08:00:00 9.1 5 Este 7 Nordeste 0 -- -- 65
2019-06-17 07:00:00 6.2 4 Nordeste 6 Nordeste 0 -- -- 74
2019-06-17 06:00:00 7.1 4 Este 6 Este 0 -- -- 70
2019-06-17 05:00:00 7.8 3 Sudeste 9 Nordeste 0 -- -- 66
2019-06-17 04:00:00 8.4 5 Nordeste 8 Nordeste 0 -- -- 63
2019-06-17 03:00:00 10.1 2 Este 4 Este 0 -- -- 58
2019-06-17 02:00:00 10.4 3 Este 6 Este 0 -- -- 59
2019-06-17 01:00:00 14.4 6 Oeste 12 Oeste 0 -- -- 37
2019-06-17 00:00:00 17.3 9 Oeste 12 Sudoeste 0 -- -- 30
2019-06-16 23:00:00 19.6 9 Sudoeste 16 Sur 0 -- -- 27
2019-06-16 22:00:00 22.3 9 Sudoeste 15 Sudoeste 0 -- -- 25
2019-06-16 21:00:00 26.3 5 Oeste 16 Oeste 0 -- -- 22
2019-06-16 20:00:00 26.6 9 Oeste 23 Oeste 0 -- -- 20
2019-06-16 19:00:00 27.3 8 Sudoeste 24 Oeste 0 -- -- 18
2019-06-16 18:00:00 27.9 12 Oeste 27 Sur 0 -- -- 18
2019-06-16 17:00:00 27.8 9 Sudoeste 25 Oeste 0 -- -- 19
2019-06-16 16:00:00 27.7 10 Sur 22 Sudeste 0 -- -- 20
2019-06-16 15:00:00 26.7 13 Sur 29 Este 0 -- -- 21
2019-06-16 14:00:00 25.8 12 Sudeste 35 Este 0 -- -- 22
2019-06-16 13:00:00 24.2 9 Norte 20 Este 0 -- -- 28
2019-06-16 12:00:00 22.5 12 Este 24 Este 0 -- -- 33
2019-06-16 11:00:00 19.3 16 Este 29 Este 0 -- -- 40
2019-06-16 10:00:00 16.7 20 Este 30 Este 0 -- -- 46
2019-06-16 09:00:00 13.4 12 Este 19 Este 0 -- -- 59
2019-06-16 08:00:00 9 8 Este 11 Este 0 -- -- 73
2019-06-16 07:00:00 5.6 5 Este 10 Este 0 -- -- 85
2019-06-16 06:00:00 6 5 Este 9 Este 0 -- -- 85
2019-06-16 05:00:00 6.9 6 Este 10 Este 0 -- -- 80
2019-06-16 04:00:00 8.8 5 Nordeste 10 Este 0 -- -- 72
2019-06-16 03:00:00 9.5 5 Este 10 Este 0 -- -- 70
2019-06-16 02:00:00 10.9 8 Este 13 Este 0 -- -- 67
2019-06-16 01:00:00 12.5 6 Este 13 Este 0 -- -- 62
2019-06-16 00:00:00 13.1 5 Nordeste 16 Este 0 -- -- 55
2019-06-15 23:00:00 13.8 2 Este 7 Noroeste 0 -- -- 43
2019-06-15 22:00:00 16.3 7 Noroeste 11 Noroeste 0 -- -- 36
2019-06-15 21:00:00 21 10 Noroeste 20 Noroeste 0 -- -- 26
2019-06-15 20:00:00 22.4 10 Noroeste 23 Norte 0 -- -- 25
2019-06-15 19:00:00 21.9 19 Noroeste 34 Noroeste 0 -- -- 25
2019-06-15 18:00:00 21.4 18 Noroeste 30 Noroeste 0 -- -- 27
2019-06-15 17:00:00 21.5 13 Norte 29 Noroeste 0 -- -- 28
2019-06-15 16:00:00 20.9 15 Oeste 36 Oeste 0 -- -- 29
2019-06-15 15:00:00 19.4 16 Oeste 32 Oeste 0 -- -- 32
2019-06-15 14:00:00 18.7 13 Oeste 30 Oeste 0 -- -- 35
2019-06-15 13:00:00 16.8 16 Noroeste 32 Oeste 0 -- -- 40
2019-06-15 12:00:00 16.4 13 Noroeste 28 Noroeste 0 -- -- 43
2019-06-15 11:00:00 14.4 15 Oeste 30 Oeste 0 -- -- 52
2019-06-15 10:00:00 12.7 16 Oeste 30 Oeste 0 -- -- 59
2019-06-15 09:00:00 11 19 Oeste 27 Oeste 0 -- -- 65
2019-06-15 08:00:00 9.5 12 Oeste 20 Oeste 0 -- -- 68
2019-06-15 07:00:00 8.4 10 Oeste 23 Oeste 0 -- -- 70
2019-06-15 06:00:00 9.2 13 Oeste 22 Oeste 0 -- -- 67
2019-06-15 05:00:00 10 16 Oeste 27 Oeste 0 -- -- 64
2019-06-15 04:00:00 10.7 13 Oeste 27 Oeste 0 -- -- 56
2019-06-15 03:00:00 11.9 19 Oeste 28 Oeste 0 -- -- 48
2019-06-15 02:00:00 12.6 19 Oeste 33 Oeste 0 -- -- 45
2019-06-15 01:00:00 14.3 19 Oeste 36 Oeste 0 -- -- 41
2019-06-15 00:00:00 15.3 19 Oeste 31 Oeste 0 -- -- 40
2019-06-14 23:00:00 16.2 22 Oeste 40 Oeste 0 -- -- 37
2019-06-14 22:00:00 17.6 19 Oeste 39 Oeste 0 -- -- 31
2019-06-14 21:00:00 20.4 26 Oeste 43 Oeste 0 -- -- 26
2019-06-14 20:00:00 22.7 30 Oeste 41 Oeste 0 -- -- 23
2019-06-14 19:00:00 24.6 25 Oeste 42 Sudoeste 0 -- -- 19
2019-06-14 18:00:00 25 22 Oeste 44 Oeste 0 -- -- 19
2019-06-14 17:00:00 25.1 14 Oeste 37 Sudoeste 0 -- -- 20
2019-06-14 16:00:00 24.7 21 Oeste 49 Oeste 0 -- -- 20
2019-06-14 15:00:00 25 8 Sur 33 Oeste 0 -- -- 21
2019-06-14 14:00:00 23.5 15 Oeste 32 Sudoeste 0 -- -- 25
2019-06-14 13:00:00 23.3 8 Sur 26 Oeste 0 -- -- 27
2019-06-14 12:00:00 21.9 13 Noroeste 26 Oeste 0 -- -- 28
2019-06-14 11:00:00 20.7 7 Oeste 14 Oeste 0 -- -- 30
2019-06-14 10:00:00 18.2 7 Este 16 Este 0 -- -- 43
2019-06-14 09:00:00 13.9 9 Este 13 Este 0 -- -- 62
2019-06-14 08:00:00 10.1 4 Este 6 Nordeste 0 -- -- 68
2019-06-14 07:00:00 5.9 7 Este 12 Este 0 -- -- 76
2019-06-14 06:00:00 6.1 3 Nordeste 5 Este 0 -- -- 73
2019-06-14 05:00:00 7.3 3 Nordeste 7 Nordeste 0 -- -- 66
2019-06-14 04:00:00 7.4 2 Nordeste 5 Nordeste 0 -- -- 65
2019-06-14 03:00:00 7.8 3 Sur 5 Sudeste 0 -- -- 63
2019-06-14 02:00:00 9.3 4 Sudeste 10 Oeste 0 -- -- 59
2019-06-14 01:00:00 11.2 6 Oeste 9 Sudoeste 0 -- -- 42
2019-06-14 00:00:00 14.8 7 Oeste 21 Oeste 0 -- -- 33
2019-06-13 23:00:00 17 15 Oeste 20 Oeste 0 -- -- 30
2019-06-13 22:00:00 18.5 10 Oeste 12 Oeste 0 -- -- 29
2019-06-13 21:00:00 21.2 7 Oeste 24 Sudoeste 0 -- -- 26
2019-06-13 20:00:00 23.8 19 Sudoeste 35 Sur 0 -- -- 21
2019-06-13 19:00:00 24.8 16 Sudoeste 36 Oeste 0 -- -- 22
2019-06-13 18:00:00 24.2 21 Sur 38 Sudoeste 0 -- -- 24
2019-06-13 17:00:00 25.8 24 Sudoeste 36 Sudoeste 0 -- -- 24
2019-06-13 16:00:00 24.9 21 Sur 37 Sudoeste 0 -- -- 27
2019-06-13 15:00:00 22.8 18 Sur 38 Sur 0 -- -- 31
2019-06-13 14:00:00 23 24 Sur 46 Sur 0 -- -- 31
2019-06-13 13:00:00 22.1 26 Sur 40 Sudeste 0 -- -- 31
2019-06-13 12:00:00 20.4 21 Sur 37 Sur 0 -- -- 42
2019-06-13 11:00:00 18.5 24 Sur 37 Sudeste 0 -- -- 48
2019-06-13 10:00:00 16.9 20 Sur 30 Sur 0 -- -- 53
2019-06-13 09:00:00 15.1 14 Sur 22 Sudeste 0 -- -- 60
2019-06-13 08:00:00 10.9 6 Este 11 Este 0 -- -- 71
2019-06-13 07:00:00 7.2 4 Este 11 Este 0 -- -- 79
2019-06-13 06:00:00 7.5 5 Nordeste 12 Este 0 -- -- 74
2019-06-13 05:00:00 7.6 5 Este 14 Este 0 -- -- 68
2019-06-13 04:00:00 8.7 8 Este 14 Este 0 -- -- 62
2019-06-13 03:00:00 9.5 9 Este 19 Este 0 -- -- 58
2019-06-13 02:00:00 10.5 12 Este 20 Este 0 -- -- 55
2019-06-13 01:00:00 11 8 Este 15 Este 0 -- -- 51
2019-06-13 00:00:00 11.4 5 Oeste 12 Oeste 0 -- -- 49
2019-06-12 23:00:00 13.7 5 Este 13 Este 0 -- -- 43
2019-06-12 22:00:00 15.7 3 Nordeste 5 Nordeste 0 -- -- 39
2019-06-12 21:00:00 18.7 3 Sudeste 12 Sur 0 -- -- 29
2019-06-12 20:00:00 19.3 5 Sudeste 17 Sudeste 0 -- -- 29
2019-06-12 19:00:00 20.4 10 Sur 24 Oeste 0 -- -- 26
2019-06-12 18:00:00 21.1 6 Oeste 33 Oeste 0 -- -- 24
2019-06-12 17:00:00 19.4 10 Sur 31 Sur 0 -- -- 29
2019-06-12 16:00:00 18.5 10 Sur 35 Oeste 0 -- -- 30
2019-06-12 15:00:00 18.3 13 Oeste 30 Oeste 0 -- -- 30
2019-06-12 14:00:00 16.6 13 Oeste 33 Oeste 0 -- -- 34
2019-06-12 13:00:00 15.3 16 Noroeste 30 Oeste 0 -- -- 38
2019-06-12 12:00:00 14 12 Oeste 27 Oeste 0 -- -- 44
2019-06-12 11:00:00 12 10 Oeste 22 Noroeste 0 -- -- 48
2019-06-12 10:00:00 9.9 8 Oeste 13 Oeste 0 -- -- 56
2019-06-12 09:00:00 7.1 3 Oeste 8 Oeste 0 -- -- 73
2019-06-12 08:00:00 2.8 0 Calma 3 Este 0 -- -- 92
2019-06-12 07:00:00 0.2 0 Calma 2 Este 0 -- -- 94
2019-06-12 06:00:00 0.4 0 Calma 6 Este 0 -- -- 93
2019-06-12 05:00:00 0.8 2 Nordeste 5 Nordeste 0 -- -- 92
2019-06-12 04:00:00 1.5 3 Nordeste 5 Nordeste 0 -- -- 90
2019-06-12 03:00:00 2.3 2 Sudeste 4 Este 0 -- -- 87
2019-06-12 02:00:00 4.7 2 Este 4 Este 0 -- -- 75
2019-06-12 01:00:00 5.6 0 Calma 8 Nordeste 0 -- -- 71
2019-06-12 00:00:00 6.4 7 Nordeste 9 Este 0 -- -- 69
2019-06-11 23:00:00 8.8 4 Nordeste 14 Norte 0 -- -- 56
2019-06-11 22:00:00 10.7 8 Norte 15 Noroeste 0 -- -- 50
2019-06-11 21:00:00 13.5 14 Noroeste 27 Norte 0 -- -- 38
2019-06-11 20:00:00 15 15 Norte 30 Norte 0 -- -- 31
2019-06-11 19:00:00 15.5 19 Norte 34 Noroeste 0 -- -- 32
2019-06-11 18:00:00 15.7 22 Noroeste 40 Noroeste 0 -- -- 33
2019-06-11 17:00:00 15.4 23 Noroeste 40 Noroeste 0 -- -- 31
2019-06-11 16:00:00 14.6 23 Noroeste 40 Norte 0 -- -- 36
2019-06-11 15:00:00 14 24 Norte 40 Norte 0 -- -- 37
2019-06-11 14:00:00 13.9 21 Noroeste 40 Noroeste 0 -- -- 41
2019-06-11 13:00:00 12.9 26 Noroeste 39 Noroeste 0 -- -- 49
2019-06-11 12:00:00 11.8 20 Noroeste 28 Noroeste 0 -- -- 57
2019-06-11 11:00:00 10.5 17 Noroeste 26 Noroeste 0 -- -- 65
2019-06-11 10:00:00 8.7 10 Noroeste 19 Noroeste 0 -- -- 83
2019-06-11 09:00:00 7.9 4 Noroeste 9 Norte 0.2 -- -- 90
2019-06-11 08:00:00 7.6 5 Nordeste 13 Nordeste 0.8 -- -- 92
2019-06-11 07:00:00 7.8 6 Sudoeste 8 Sudoeste 1 -- -- 87
2019-06-11 06:00:00 8.4 3 Sur 7 Sudeste 0 -- -- 81
2019-06-11 05:00:00 8.6 6 Este 21 Este 0 -- -- 78
2019-06-11 04:00:00 9.5 15 Este 24 Este 0 -- -- 73
2019-06-11 03:00:00 10.6 15 Este 24 Este 0 -- -- 63
2019-06-11 02:00:00 11.5 12 Este 23 Este 0 -- -- 61
2019-06-11 01:00:00 12.6 12 Este 23 Este 0 -- -- 55
2019-06-11 00:00:00 13.2 2 Sudeste 3 Sudeste 0 -- -- 51
2019-06-10 23:00:00 13.5 0 Calma 8 Norte 0 -- -- 49
2019-06-10 22:00:00 13.9 4 Norte 18 Norte 0 -- -- 46
2019-06-10 21:00:00 15.4 13 Norte 28 Noroeste 0 -- -- 42
2019-06-10 20:00:00 16.1 20 Noroeste 33 Noroeste 0 -- -- 39
2019-06-10 19:00:00 18.3 19 Noroeste 35 Noroeste 0 -- -- 35
2019-06-10 18:00:00 18 22 Noroeste 41 Noroeste 0 -- -- 36
2019-06-10 17:00:00 17.9 21 Noroeste 47 Oeste 0 -- -- 36
2019-06-10 16:00:00 17.5 23 Noroeste 38 Oeste 0 -- -- 35
2019-06-10 15:00:00 18.2 22 Noroeste 41 Oeste 0 -- -- 34
2019-06-10 14:00:00 17.6 25 Oeste 49 Noroeste 0 -- -- 37
2019-06-10 13:00:00 16.3 23 Oeste 41 Oeste 0 -- -- 41
2019-06-10 12:00:00 15.5 24 Oeste 37 Oeste 0 -- -- 47
2019-06-10 11:00:00 13.7 21 Oeste 33 Oeste 0 -- -- 63
2019-06-10 10:00:00 11.5 15 Oeste 23 Noroeste 0 -- -- 73
2019-06-10 09:00:00 8.7 16 Oeste 22 Oeste 0 -- -- 86
2019-06-10 08:00:00 7.6 11 Noroeste 22 Oeste 0 -- -- 92
2019-06-10 07:00:00 7.1 6 Oeste 15 Noroeste 0 -- -- 91
2019-06-10 06:00:00 7.8 6 Noroeste 13 Oeste 0 -- -- 88
2019-06-10 05:00:00 8.3 16 Oeste 21 Oeste 0 -- -- 87
2019-06-10 04:00:00 8.9 15 Oeste 21 Oeste 0 -- -- 84
2019-06-10 03:00:00 10.1 15 Oeste 19 Oeste 0 -- -- 80
2019-06-10 02:00:00 10.6 14 Oeste 23 Oeste 0 -- -- 79
2019-06-10 01:00:00 11.7 7 Sudoeste 14 Oeste 0 -- -- 76
2019-06-10 00:00:00 14.9 11 Oeste 27 Oeste 0 -- -- 58
2019-06-09 23:00:00 16.7 12 Noroeste 20 Norte 0 -- -- 51
2019-06-09 22:00:00 19.1 16 Noroeste 27 Noroeste 0 -- -- 37
2019-06-09 21:00:00 21 13 Noroeste 28 Oeste 0 -- -- 29
2019-06-09 20:00:00 21.5 19 Noroeste 31 Noroeste 0 -- -- 27
2019-06-09 19:00:00 22 17 Noroeste 34 Noroeste 0 -- -- 27
2019-06-09 18:00:00 23.5 21 Oeste 34 Oeste 0 -- -- 25
2019-06-09 17:00:00 23.4 21 Oeste 37 Oeste 0 -- -- 25
2019-06-09 16:00:00 23.2 18 Noroeste 39 Oeste 0 -- -- 25
2019-06-09 15:00:00 23.1 22 Oeste 41 Noroeste 0 -- -- 25
2019-06-09 14:00:00 22.3 16 Oeste 31 Oeste 0 -- -- 25
2019-06-09 13:00:00 21.2 16 Oeste 36 Oeste 0 -- -- 32
2019-06-09 12:00:00 20.8 23 Oeste 32 Sudoeste 0 -- -- 32
2019-06-09 11:00:00 18.5 11 Oeste 21 Noroeste 0 -- -- 40
2019-06-09 10:00:00 16.3 9 Noroeste 15 Oeste 0 -- -- 45
2019-06-09 09:00:00 13.5 0 Calma 6 Sudeste 0 -- -- 68
2019-06-09 08:00:00 10 3 Sudeste 4 Este 0 -- -- 81
2019-06-09 07:00:00 8.3 4 Este 7 Nordeste 0 -- -- 86
2019-06-09 06:00:00 9.5 3 Este 11 Este 0 -- -- 82
2019-06-09 05:00:00 10 2 Nordeste 5 Este 0 -- -- 79
2019-06-09 04:00:00 11.2 4 Nordeste 9 Este 0 -- -- 75
2019-06-09 03:00:00 12.4 6 Este 12 Este 0 -- -- 71
2019-06-09 02:00:00 13 5 Este 14 Este 0 -- -- 69
2019-06-09 01:00:00 15.2 12 Este 18 Este 0 -- -- 62
2019-06-09 00:00:00 16.5 10 Este 13 Este 0 -- -- 58
2019-06-08 23:00:00 17.8 6 Nordeste 26 Sudeste 0 -- -- 52
2019-06-08 22:00:00 19.6 18 Sudeste 32 Este 0 -- -- 45
2019-06-08 21:00:00 20.8 20 Este 32 Este 0 -- -- 41
2019-06-08 20:00:00 23.4 13 Sur 23 Sur 0 -- -- 33
2019-06-08 19:00:00 23.9 17 Sur 32 Sur 0 -- -- 32
2019-06-08 18:00:00 24.1 21 Sur 36 Sur 0 -- -- 29
2019-06-08 17:00:00 23.9 19 Sur 32 Sur 0 -- -- 30
2019-06-08 16:00:00 23.5 13 Sur 33 Sudeste 0 -- -- 31
2019-06-08 15:00:00 22.9 21 Sudeste 38 Este 0 -- -- 32
2019-06-08 14:00:00 22.4 22 Este 40 Este 0 -- -- 32
2019-06-08 13:00:00 20.5 14 Este 31 Sudeste 0 -- -- 34
2019-06-08 12:00:00 18.4 15 Este 29 Este 0 -- -- 38
2019-06-08 11:00:00 16.3 18 Este 31 Este 0 -- -- 42
2019-06-08 10:00:00 13.4 20 Este 29 Este 0 -- -- 49
2019-06-08 09:00:00 9 9 Este 13 Este 0 -- -- 64
2019-06-08 08:00:00 4 3 Este 5 Este 0 -- -- 81
2019-06-08 07:00:00 1.1 3 Nordeste 7 Este 0 -- -- 89
2019-06-08 06:00:00 0.8 3 Este 7 Este 0 -- -- 89
2019-06-08 05:00:00 0.7 4 Este 7 Este 0 -- -- 89
2019-06-08 04:00:00 2.2 2 Nordeste 10 Este 0 -- -- 85
2019-06-08 03:00:00 2.2 3 Nordeste 6 Este 0 -- -- 84
2019-06-08 02:00:00 3.4 4 Este 6 Este 0 -- -- 80
2019-06-08 01:00:00 5.3 0 Calma 7 Sudeste 0 -- -- 73
2019-06-08 00:00:00 6.9 0 Calma 8 Sudeste 0 -- -- 66
2019-06-07 23:00:00 9.7 2 Sudeste 12 Noroeste 0 -- -- 52
2019-06-07 22:00:00 11.8 9 Noroeste 15 Noroeste 0 -- -- 43
2019-06-07 21:00:00 15.5 9 Noroeste 23 Oeste 0 -- -- 34
2019-06-07 20:00:00 16.7 10 Oeste 30 Oeste 0 -- -- 31
2019-06-07 19:00:00 17.4 10 Noroeste 38 Oeste 0 -- -- 31
2019-06-07 18:00:00 16.2 18 Oeste 35 Oeste 0 -- -- 33
2019-06-07 17:00:00 16.7 23 Oeste 40 Oeste 0 -- -- 33
2019-06-07 16:00:00 15.6 20 Noroeste 37 Oeste 0 -- -- 37
2019-06-07 15:00:00 14.8 23 Oeste 37 Noroeste 0 -- -- 42
2019-06-07 14:00:00 13.2 24 Oeste 42 Oeste 0 -- -- 48
2019-06-07 13:00:00 12.9 26 Oeste 45 Oeste 0 -- -- 49
2019-06-07 12:00:00 11.8 30 Oeste 48 Noroeste 0 -- -- 54
2019-06-07 11:00:00 10 35 Oeste 53 Oeste 0 -- -- 59
2019-06-07 10:00:00 8.7 32 Oeste 46 Oeste 0 -- -- 66
2019-06-07 09:00:00 8 32 Oeste 49 Oeste 0 -- -- 71
2019-06-07 08:00:00 6.8 21 Oeste 32 Oeste 0 -- -- 81
2019-06-07 07:00:00 6.3 18 Oeste 48 Oeste 0 -- -- 83
2019-06-07 06:00:00 6.6 18 Oeste 35 Oeste 0.2 -- -- 88
2019-06-07 05:00:00 6.6 19 Oeste 37 Oeste 0.4 -- -- 90
2019-06-07 04:00:00 7 11 Oeste 46 Oeste 0.4 -- -- 90
2019-06-07 03:00:00 7.1 28 Oeste 56 Oeste 0.4 -- -- 88
2019-06-07 02:00:00 9.4 34 Oeste 60 Oeste 0 -- -- 84
2019-06-07 01:00:00 16.7 23 Sudoeste 36 Sudoeste 0 -- -- 38
2019-06-07 00:00:00 16.8 21 Sur 45 Sur 0 -- -- 34
2019-06-06 23:00:00 17.3 25 Sudoeste 43 Sudoeste 0 -- -- 32
2019-06-06 22:00:00 17.4 16 Sudoeste 36 Sudoeste 0 -- -- 30
2019-06-06 21:00:00 18.9 25 Sur 49 Sur 0 -- -- 26
2019-06-06 20:00:00 20.6 29 Sur 55 Sur 0 -- -- 24
2019-06-06 19:00:00 20.9 36 Sur 57 Sudoeste 0 -- -- 24
2019-06-06 18:00:00 21.7 28 Sur 52 Sudoeste 0 -- -- 22
2019-06-06 17:00:00 22.6 27 Sur 53 Sur 0 -- -- 22
2019-06-06 16:00:00 20.8 30 Sur 50 Sudoeste 0 -- -- 24
2019-06-06 15:00:00 20.7 26 Sudoeste 42 Sudoeste 0 -- -- 24
2019-06-06 14:00:00 19.3 23 Sudoeste 42 Sur 0 -- -- 23
2019-06-06 13:00:00 18.8 17 Sur 38 Sudeste 0 -- -- 24
2019-06-06 12:00:00 17.5 17 Sur 36 Este 0 -- -- 32
2019-06-06 11:00:00 14.9 15 Sudeste 26 Sudeste 0 -- -- 47
2019-06-06 10:00:00 12.5 5 Este 12 Este 0 -- -- 53
2019-06-06 09:00:00 9.5 5 Este 8 Este 0 -- -- 77
2019-06-06 08:00:00 6.5 4 Este 5 Este 0 -- -- 90
2019-06-06 07:00:00 4.2 2 Este 4 Este 0 -- -- 91
2019-06-06 06:00:00 5.3 0 Calma 4 Nordeste 0 -- -- 90
2019-06-06 05:00:00 6 2 Este 4 Norte 0 -- -- 85
2019-06-06 04:00:00 6.1 3 Este 5 Este 0 -- -- 80
2019-06-06 03:00:00 6 2 Nordeste 11 Sudoeste 0 -- -- 80
2019-06-06 02:00:00 8.1 5 Sudoeste 10 Oeste 0 -- -- 63
2019-06-06 01:00:00 9.2 6 Sudoeste 21 Oeste 0 -- -- 58
2019-06-06 00:00:00 10.5 9 Oeste 16 Oeste 0 -- -- 51
2019-06-05 23:00:00 12.4 13 Oeste 26 Oeste 0 -- -- 43
2019-06-05 22:00:00 13.9 12 Oeste 23 Oeste 0 -- -- 40
2019-06-05 21:00:00 15.4 19 Oeste 28 Oeste 0 -- -- 37
2019-06-05 20:00:00 16 18 Noroeste 36 Oeste 0 -- -- 36
2019-06-05 19:00:00 16.7 24 Oeste 34 Oeste 0 -- -- 35
2019-06-05 18:00:00 16.4 26 Oeste 48 Oeste 0 -- -- 33
2019-06-05 17:00:00 16.3 30 Noroeste 48 Oeste 0 -- -- 40
2019-06-05 16:00:00 14.2 24 Noroeste 41 Oeste 0 -- -- 52
2019-06-05 15:00:00 14 21 Oeste 41 Oeste 0 -- -- 54
2019-06-05 14:00:00 13.1 26 Oeste 41 Oeste 0 -- -- 59
2019-06-05 13:00:00 10.6 23 Oeste 56 Oeste 0 -- -- 72
2019-06-05 12:00:00 10.3 35 Oeste 52 Oeste 0.2 -- -- 73
2019-06-05 11:00:00 7.6 31 Oeste 44 Oeste 1.6 -- -- 90
2019-06-05 10:00:00 7.8 22 Oeste 44 Oeste 1.6 -- -- 88
2019-06-05 09:00:00 9.1 24 Oeste 37 Oeste 0 -- -- 84
2019-06-05 08:00:00 9.5 23 Oeste 35 Oeste 0 -- -- 84
2019-06-05 07:00:00 9.5 27 Oeste 40 Oeste 0 -- -- 85
2019-06-05 06:00:00 10.5 22 Oeste 34 Oeste 0 -- -- 81
2019-06-05 05:00:00 13.2 24 Oeste 34 Oeste 0 -- -- 65
2019-06-05 04:00:00 14 19 Oeste 27 Oeste 0 -- -- 57
2019-06-05 03:00:00 14.5 12 Oeste 22 Noroeste 0 -- -- 59
2019-06-05 02:00:00 15 13 Oeste 19 Oeste 0 -- -- 61
2019-06-05 01:00:00 15.6 12 Oeste 17 Oeste 0 -- -- 59
2019-06-05 00:00:00 15.8 11 Oeste 25 Oeste 0 -- -- 59
2019-06-04 23:00:00 17.4 13 Oeste 26 Oeste 0 -- -- 51
2019-06-04 22:00:00 18.3 16 Noroeste 30 Noroeste 0 -- -- 48
2019-06-04 21:00:00 20.8 17 Noroeste 30 Oeste 0 -- -- 40
2019-06-04 20:00:00 22 17 Noroeste 34 Noroeste 0 -- -- 38
2019-06-04 19:00:00 23.3 24 Noroeste 43 Noroeste 0 -- -- 34
2019-06-04 18:00:00 23.6 17 Noroeste 28 Noroeste 0 -- -- 35
2019-06-04 17:00:00 25.1 9 Norte 22 Oeste 0 -- -- 32
2019-06-04 16:00:00 24.4 15 Noroeste 30 Oeste 0 -- -- 34
2019-06-04 15:00:00 24 14 Oeste 32 Oeste 0 -- -- 39
2019-06-04 14:00:00 23.9 17 Oeste 28 Oeste 0 -- -- 43
2019-06-04 13:00:00 23.5 14 Oeste 28 Oeste 0 -- -- 44
2019-06-04 12:00:00 21.5 13 Oeste 29 Oeste 0 -- -- 48
2019-06-04 11:00:00 19.5 10 Oeste 21 Oeste 0 -- -- 54
2019-06-04 10:00:00 18.3 5 Oeste 12 Oeste 0 -- -- 52
2019-06-04 09:00:00 14.3 3 Este 5 Este 0 -- -- 52
2019-06-04 08:00:00 9.5 3 Este 6 Este 0 -- -- 64
2019-06-04 07:00:00 7.4 3 Sudeste 6 Este 0 -- -- 68
2019-06-04 06:00:00 7.9 2 Este 8 Sudeste 0 -- -- 64
2019-06-04 05:00:00 8.9 4 Sudeste 8 Sudeste 0 -- -- 60
2019-06-04 04:00:00 9 0 Calma 5 Este 0 -- -- 59
2019-06-04 03:00:00 9.6 2 Este 5 Sudeste 0 -- -- 58
2019-06-04 02:00:00 11.2 0 Calma 5 Este 0 -- -- 53
2019-06-04 01:00:00 13.8 0 Calma 10 Oeste 0 -- -- 41
2019-06-04 00:00:00 18.6 10 Oeste 14 Sudoeste 0 -- -- 25
2019-06-03 23:00:00 20.6 12 Sudoeste 19 Oeste 0 -- -- 21
2019-06-03 22:00:00 23.5 13 Oeste 25 Oeste 0 -- -- 17
2019-06-03 21:00:00 27 18 Oeste 30 Oeste 0 -- -- 15
2019-06-03 20:00:00 28.4 17 Noroeste 39 Oeste 0 -- -- 16
2019-06-03 19:00:00 29.9 19 Oeste 32 Oeste 0 -- -- 18
2019-06-03 18:00:00 29.4 22 Sudoeste 35 Sudoeste 0 -- -- 23
2019-06-03 17:00:00 29.8 24 Oeste 44 Oeste 0 -- -- 18
2019-06-03 16:00:00 30 25 Oeste 46 Oeste 0 -- -- 17
2019-06-03 15:00:00 28.3 27 Oeste 48 Oeste 0 -- -- 18
2019-06-03 14:00:00 28.5 7 Sudoeste 21 Oeste 0 -- -- 23
2019-06-03 13:00:00 26.1 10 Oeste 21 Oeste 0 -- -- 28
2019-06-03 12:00:00 23.9 8 Oeste 18 Oeste 0 -- -- 31
2019-06-03 11:00:00 21.4 8 Oeste 21 Oeste 0 -- -- 36
2019-06-03 10:00:00 18.9 4 Este 9 Este 0 -- -- 44
2019-06-03 09:00:00 14.1 4 Este 8 Este 0 -- -- 59
2019-06-03 08:00:00 10 4 Nordeste 7 Este 0 -- -- 74
2019-06-03 07:00:00 10 0 Calma 4 Este 0 -- -- 74
2019-06-03 06:00:00 10.9 0 Calma 5 Sudeste 0 -- -- 70
2019-06-03 05:00:00 11.3 0 Calma 9 Este 0 -- -- 70
2019-06-03 04:00:00 11.6 3 Nordeste 5 Nordeste 0 -- -- 68
2019-06-03 03:00:00 12.8 3 Sudeste -- -- 0 -- -- 64
2019-06-03 02:00:00 14.8 2 Sudeste 8 Sudeste 0 -- -- 56
2019-06-03 01:00:00 17 4 Sudeste 7 Sudeste 0 -- -- 50
2019-06-03 00:00:00 19.5 3 Nordeste 12 Oeste 0 -- -- 43
2019-06-02 23:00:00 22.8 9 Oeste 23 Sudoeste 0 -- -- 34
2019-06-02 22:00:00 24.5 12 Sudoeste 22 Noroeste 0 -- -- 27
2019-06-02 21:00:00 25.9 11 Noroeste 17 Noroeste 0 -- -- 26
2019-06-02 20:00:00 28 13 Noroeste 24 Noroeste 0 -- -- 22
2019-06-02 19:00:00 28.8 12 Noroeste 23 Oeste 0 -- -- 22
2019-06-02 18:00:00 29.8 15 Noroeste 32 Oeste 0 -- -- 21
2019-06-02 17:00:00 30.1 21 Oeste 35 Oeste 0 -- -- 20
2019-06-02 16:00:00 30 12 Oeste 31 Oeste 0 -- -- 23
2019-06-02 15:00:00 29.9 17 Oeste 34 Oeste 0 -- -- 26
2019-06-02 14:00:00 28.9 13 Oeste 23 Oeste 0 -- -- 26
2019-06-02 13:00:00 27.5 9 Noroeste 19 Noroeste 0 -- -- 30
2019-06-02 12:00:00 25.9 12 Oeste 18 Oeste 0 -- -- 32
2019-06-02 11:00:00 23.5 10 Sudoeste 15 Sudoeste 0 -- -- 35
2019-06-02 10:00:00 21.4 6 Este 13 Este 0 -- -- 40
2019-06-02 09:00:00 18.2 6 Este 10 Este 0 -- -- 47
2019-06-02 08:00:00 15.4 5 Este 10 Nordeste 0 -- -- 54
2019-06-02 07:00:00 12.9 6 Nordeste 9 Nordeste 0 -- -- 59
2019-06-02 06:00:00 12.8 4 Nordeste 12 Este 0 -- -- 59
2019-06-02 05:00:00 14.5 7 Este 14 Este 0 -- -- 52
2019-06-02 04:00:00 15.4 9 Este 18 Este 0 -- -- 49
2019-06-02 03:00:00 16.7 10 Este 17 Este 0 -- -- 45
2019-06-02 02:00:00 16.9 5 Este 14 Este 0 -- -- 48
2019-06-02 01:00:00 18.2 9 Este 16 Este 0 -- -- 47
2019-06-02 00:00:00 19.3 8 Este 18 Este 0 -- -- 46
2019-06-01 23:00:00 21.1 9 Nordeste 17 Este 0 -- -- 43
2019-06-01 22:00:00 23.7 11 Nordeste 22 Nordeste 0 -- -- 36
2019-06-01 21:00:00 28.9 5 Oeste 6 Oeste 0 -- -- 23
2019-06-01 20:00:00 31.5 6 Oeste 17 Oeste 0 -- -- 16
2019-06-01 19:00:00 31.9 5 Sudeste 17 Sudeste 0 -- -- 14
2019-06-01 18:00:00 30.7 11 Oeste 20 Oeste 0 -- -- 14
2019-06-01 17:00:00 31 7 Sudeste 23 Sudoeste 0 -- -- 15
2019-06-01 16:00:00 31.3 4 Sur 18 Oeste 0 -- -- 17
2019-06-01 15:00:00 30.1 8 Noroeste 32 Sudoeste 0 -- -- 19
2019-06-01 14:00:00 29.1 8 Sur 17 Sudoeste 0 -- -- 18
2019-06-01 13:00:00 28.1 4 Sudoeste 13 Sudeste 0 -- -- 23
2019-06-01 12:00:00 25.8 5 Sudoeste 15 Este 0 -- -- 30
2019-06-01 11:00:00 23.6 9 Este 15 Este 0 -- -- 38
2019-06-01 10:00:00 19.7 11 Este 19 Este 0 -- -- 47
2019-06-01 09:00:00 17.1 12 Este 18 Este 0 -- -- 51
2019-06-01 08:00:00 13.4 5 Este 8 Este 0 -- -- 58
2019-06-01 07:00:00 10.1 2 Este 5 Este 0 -- -- 64
2019-06-01 06:00:00 8.7 3 Este 9 Este 0 -- -- 72
2019-06-01 05:00:00 10.2 5 Este 8 Este 0 -- -- 65
2019-06-01 04:00:00 10.5 5 Este 9 Este 0 -- -- 65
2019-06-01 03:00:00 11.9 3 Este 8 Este 0 -- -- 61
2019-06-01 02:00:00 14.3 6 Nordeste 13 Este 0 -- -- 53
2019-06-01 01:00:00 15.5 5 Nordeste 14 Este 0 -- -- 49
2019-06-01 00:00:00 18.1 7 Este 23 Este 0 -- -- 42
2019-05-31 23:00:00 20.5 18 Este 29 Este 0 -- -- 36
2019-05-31 22:00:00 22.7 14 Este 24 Este 0 -- -- 31
2019-05-31 21:00:00 28.6 4 Noroeste 14 Oeste 0 -- -- 18
2019-05-31 20:00:00 31.2 2 Oeste 10 Oeste 0 -- -- 16
2019-05-31 19:00:00 30.8 4 Noroeste 14 Oeste 0 -- -- 16
2019-05-31 18:00:00 29.4 9 Norte 16 Norte 0 -- -- 16
2019-05-31 17:00:00 29.9 6 Sudeste 28 Oeste 0 -- -- 18
2019-05-31 16:00:00 29 7 Sudoeste 15 Sudoeste 0 -- -- 18
2019-05-31 15:00:00 28.1 8 Sur 15 Sur 0 -- -- 19
2019-05-31 14:00:00 26.4 10 Sur 20 Sur 0 -- -- 20
2019-05-31 13:00:00 25.9 4 Oeste 24 Este 0 -- -- 22
2019-05-31 12:00:00 24.6 11 Este 23 Sudeste 0 -- -- 27
2019-05-31 11:00:00 23.1 7 Nordeste 13 Nordeste 0 -- -- 37
2019-05-31 10:00:00 18.1 6 Este 10 Este 0 -- -- 52
2019-05-31 09:00:00 11.8 3 Este 9 Este 0 -- -- 68
2019-05-31 08:00:00 7.4 6 Este 9 Nordeste 0 -- -- 80
2019-05-31 07:00:00 4.8 5 Nordeste 8 Nordeste 0 -- -- 87
2019-05-31 06:00:00 5.2 4 Nordeste 8 Nordeste 0 -- -- 86
2019-05-31 05:00:00 5.9 4 Nordeste 9 Nordeste 0 -- -- 84
2019-05-31 04:00:00 6.6 3 Este 6 Sudeste 0 -- -- 81
2019-05-31 03:00:00 7.6 4 Sudeste 6 Sudeste 0 -- -- 78
2019-05-31 02:00:00 9.2 4 Sudeste 5 Sudeste 0 -- -- 71
2019-05-31 01:00:00 12.8 0 Calma 6 Sudeste 0 -- -- 53
2019-05-31 00:00:00 14.9 0 Calma 6 Nordeste 0 -- -- 45
2019-05-30 23:00:00 15.9 4 Nordeste 10 Nordeste 0 -- -- 41
2019-05-30 22:00:00 19.6 8 Nordeste 20 Este 0 -- -- 32
2019-05-30 21:00:00 24.2 15 Este 35 Este 0 -- -- 22
2019-05-30 20:00:00 25.9 23 Este 35 Este 0 -- -- 20
2019-05-30 19:00:00 26.9 22 Este 33 Este 0 -- -- 20
2019-05-30 18:00:00 27.9 13 Sudeste 25 Sur 0 -- -- 19
2019-05-30 17:00:00 28.7 4 Este 19 Nordeste 0 -- -- 18
2019-05-30 16:00:00 26.9 11 Sudoeste 29 Sudoeste 0 -- -- 21
2019-05-30 15:00:00 26.8 8 Sudoeste 33 Oeste 0 -- -- 26
2019-05-30 14:00:00 25.6 5 Sudeste 19 Este 0 -- -- 28
2019-05-30 13:00:00 23.4 9 Norte 29 Sudeste 0 -- -- 32
2019-05-30 12:00:00 21.9 5 Sudeste 15 Sur 0 -- -- 34
2019-05-30 11:00:00 18.5 8 Sur 14 Noroeste 0 -- -- 46
2019-05-30 10:00:00 15.3 9 Oeste 15 Noroeste 0 -- -- 52
2019-05-30 09:00:00 9.9 3 Este 5 Nordeste 0 -- -- 70
2019-05-30 08:00:00 5.4 2 Este 5 Nordeste 0 -- -- 84
2019-05-30 07:00:00 2.4 0 Calma 7 Este 0 -- -- 91
2019-05-30 06:00:00 3.1 3 Este 4 Sudeste 0 -- -- 90
2019-05-30 05:00:00 3.7 0 Calma 6 Sudeste 0 -- -- 89
2019-05-30 04:00:00 4 4 Sudeste 6 Sudeste 0 -- -- 87
2019-05-30 03:00:00 4.7 0 Calma 6 Sudeste 0 -- -- 84
2019-05-30 02:00:00 5.9 0 Calma 4 Este 0 -- -- 81
2019-05-30 01:00:00 7.8 0 Calma 5 Sudeste 0 -- -- 73
2019-05-30 00:00:00 9.6 0 Calma 5 Este 0 -- -- 65
2019-05-29 23:00:00 12.5 0 Calma 10 Nordeste 0 -- -- 53
2019-05-29 22:00:00 14.2 4 Nordeste 17 Nordeste 0 -- -- 48
2019-05-29 21:00:00 18.4 11 Norte 28 Nordeste 0 -- -- 34
2019-05-29 20:00:00 20.6 16 Nordeste 27 Nordeste 0 -- -- 31
2019-05-29 19:00:00 21.8 15 Nordeste 25 Nordeste 0 -- -- 30
2019-05-29 18:00:00 23.2 8 Norte 26 Nordeste 0 -- -- 31
2019-05-29 17:00:00 22.2 16 Norte 30 Noroeste 0 -- -- 34
2019-05-29 16:00:00 21.2 9 Norte 26 Norte 0 -- -- 35
2019-05-29 15:00:00 20 15 Noroeste 28 Norte 0 -- -- 37
2019-05-29 14:00:00 19.5 13 Norte 27 Norte 0 -- -- 39
2019-05-29 13:00:00 17.8 9 Noroeste 27 Noroeste 0 -- -- 44
2019-05-29 12:00:00 16.4 11 Nordeste 25 Noroeste 0 -- -- 46
2019-05-29 11:00:00 14 8 Noroeste 18 Noroeste 0 -- -- 54
2019-05-29 10:00:00 11.5 13 Oeste 22 Oeste 0 -- -- 61
2019-05-29 09:00:00 8.9 8 Oeste 13 Oeste 0 -- -- 67
2019-05-29 08:00:00 4.5 5 Oeste 8 Oeste 0 -- -- 85
2019-05-29 07:00:00 1.1 0 Calma 6 Este 0 -- -- 92
2019-05-29 06:00:00 1.5 2 Nordeste 6 Este 0 -- -- 90
2019-05-29 05:00:00 2.7 0 Calma 4 Nordeste 0 -- -- 87
2019-05-29 04:00:00 3 2 Este 5 Este 0 -- -- 86
2019-05-29 03:00:00 5 0 Calma 6 Oeste 0 -- -- 79
2019-05-29 02:00:00 6.3 0 Calma 10 Noroeste 0 -- -- 73
2019-05-29 01:00:00 7.7 8 Noroeste 13 Noroeste 0 -- -- 68
2019-05-29 00:00:00 9 7 Norte 14 Norte 0 -- -- 62
2019-05-28 23:00:00 9.8 6 Norte 26 Nordeste 0 -- -- 59
2019-05-28 22:00:00 11.2 11 Nordeste 22 Nordeste 0 -- -- 55
2019-05-28 21:00:00 14.3 14 Norte 28 Norte 0 -- -- 45
2019-05-28 20:00:00 16.2 16 Nordeste 36 Noroeste 0 -- -- 40
2019-05-28 19:00:00 17.1 23 Norte 45 Noroeste 0 -- -- 34
2019-05-28 18:00:00 17.8 28 Noroeste 43 Noroeste 0 -- -- 35
2019-05-28 17:00:00 18.7 23 Noroeste 40 Noroeste 0 -- -- 33
2019-05-28 16:00:00 19.1 22 Noroeste 35 Noroeste 0 -- -- 31
2019-05-28 15:00:00 18.8 15 Noroeste 37 Noroeste 0 -- -- 33
2019-05-28 14:00:00 18.5 9 Noroeste 24 Noroeste 0 -- -- 35
2019-05-28 13:00:00 16.9 10 Noroeste 22 Oeste 0 -- -- 39
2019-05-28 12:00:00 15.5 5 Norte 14 Sudeste 0 -- -- 50
2019-05-28 11:00:00 12.5 6 Oeste 14 Sudoeste 0 -- -- 60
2019-05-28 10:00:00 10.9 3 Sudeste 9 Este 0 -- -- 68
2019-05-28 09:00:00 8.4 0 Calma 5 Este 0 -- -- 77
2019-05-28 08:00:00 4.5 3 Este 5 Este 0 -- -- 92
2019-05-28 07:00:00 2.7 0 Calma 4 Este 0 -- -- 94
2019-05-28 06:00:00 3.7 2 Sudeste 3 Sudeste 0 -- -- 93
2019-05-28 05:00:00 4.4 2 Este 8 Nordeste 0 -- -- 91
2019-05-28 04:00:00 5.7 3 Nordeste 6 Nordeste 0 -- -- 89
2019-05-28 03:00:00 7.7 0 Calma 3 Nordeste 0 -- -- 82
2019-05-28 02:00:00 9 0 Calma 8 Sudeste 0 -- -- 78
2019-05-28 01:00:00 10.2 5 Este 10 Sudeste 0 -- -- 74
2019-05-28 00:00:00 12.5 6 Nordeste 15 Nordeste 0 -- -- 65
2019-05-27 23:00:00 13.9 13 Nordeste 25 Nordeste 0 -- -- 61
2019-05-27 22:00:00 15 9 Nordeste 17 Nordeste 0 -- -- 56
2019-05-27 21:00:00 18.2 10 Nordeste 30 Noroeste 0 -- -- 46
2019-05-27 20:00:00 20.5 17 Noroeste 32 Noroeste 0 -- -- 37
2019-05-27 19:00:00 21.5 17 Noroeste 33 Noroeste 0 -- -- 38
2019-05-27 18:00:00 21.5 21 Noroeste 42 Noroeste 0 -- -- 40
2019-05-27 17:00:00 21.8 24 Noroeste 36 Oeste 0 -- -- 39
2019-05-27 16:00:00 22.9 24 Noroeste 35 Noroeste 0 -- -- 36
2019-05-27 15:00:00 21.9 13 Noroeste 32 Oeste 0 -- -- 40
2019-05-27 14:00:00 22.1 17 Noroeste 35 Oeste 0 -- -- 37
2019-05-27 13:00:00 21.1 20 Oeste 39 Oeste 0 -- -- 41
2019-05-27 12:00:00 19.2 17 Noroeste 28 Oeste 0 -- -- 47
2019-05-27 11:00:00 16.8 12 Oeste 24 Oeste 0 -- -- 53
2019-05-27 10:00:00 14.1 15 Noroeste 22 Oeste 0 -- -- 60
2019-05-27 09:00:00 9.6 3 Sudeste 10 Sudoeste 0 -- -- 83
2019-05-27 08:00:00 5.3 0 Calma 4 Este 0 -- -- 92
2019-05-27 07:00:00 4.4 0 Calma 4 Este 0 -- -- 93
2019-05-27 06:00:00 4.8 0 Calma 8 Sur 0 -- -- 92
2019-05-27 05:00:00 5.1 3 Sudeste 5 Nordeste 0 -- -- 91
2019-05-27 04:00:00 5.9 2 Norte 6 Este 0 -- -- 90
2019-05-27 03:00:00 6.7 2 Nordeste 5 Nordeste 0 -- -- 86
2019-05-27 02:00:00 8 3 Este 5 Este 0 -- -- 83
2019-05-27 01:00:00 9.5 3 Sudeste 6 Sudeste 0 -- -- 77
2019-05-27 00:00:00 13.1 3 Sur 9 Oeste 0 -- -- 64
2019-05-26 23:00:00 13.8 5 Sudoeste 10 Este 0 -- -- 57
2019-05-26 22:00:00 15.5 5 Noroeste 24 Noroeste 0 -- -- 52
2019-05-26 21:00:00 19 19 Noroeste 28 Noroeste 0 -- -- 43
2019-05-26 20:00:00 21.2 19 Noroeste 35 Noroeste 0 -- -- 37
2019-05-26 19:00:00 22.9 15 Norte 27 Norte 0 -- -- 33
2019-05-26 18:00:00 23.3 12 Norte 37 Noroeste 0 -- -- 34
2019-05-26 17:00:00 22.8 22 Noroeste 40 Noroeste 0 -- -- 35
2019-05-26 16:00:00 22.4 18 Noroeste 35 Noroeste 0 -- -- 34
2019-05-26 15:00:00 21.6 13 Norte 26 Noroeste 0 -- -- 32
2019-05-26 14:00:00 20 13 Oeste 30 Norte 0 -- -- 36
2019-05-26 13:00:00 18.9 7 Noroeste 33 Oeste 0 -- -- 40
2019-05-26 12:00:00 15.5 21 Oeste 33 Oeste 0 -- -- 51
2019-05-26 11:00:00 13.7 14 Oeste 26 Oeste 0 -- -- 57
2019-05-26 10:00:00 11.1 10 Oeste 18 Noroeste 0 -- -- 66
2019-05-26 09:00:00 8.6 9 Oeste 17 Oeste 0 -- -- 73
2019-05-26 08:00:00 4.3 3 Sur 6 Sudeste 0 -- -- 93
2019-05-26 07:00:00 1.7 0 Calma 3 Noroeste 0 -- -- 95
2019-05-26 06:00:00 1.2 2 Sudeste 4 Sudeste 0 -- -- 94
2019-05-26 05:00:00 1.7 0 Calma 5 Este 0 -- -- 94
2019-05-26 04:00:00 2.7 0 Calma 8 Este 0 -- -- 92
2019-05-26 03:00:00 4 0 Calma 3 Este 0 -- -- 91
2019-05-26 02:00:00 5.2 2 Sur 7 Sudeste 0 -- -- 86
2019-05-26 01:00:00 6.9 4 Sur 8 Sudeste 0 -- -- 83
2019-05-26 00:00:00 7.7 0 Calma 8 Este 0 -- -- 79